sensor_id;sensor_type;location;lat;lon;timestamp;pressure;altitude;pressure_sealevel;temperature;humidity
47883;BME280;37739;50.350;7.578;2022-12-05T00:00:27;99662.97;;;2.07;90.53
47883;BME280;37739;50.350;7.578;2022-12-05T00:02:53;99659.69;;;2.08;90.17
47883;BME280;37739;50.350;7.578;2022-12-05T00:05:18;99668.91;;;2.08;90.03
47883;BME280;37739;50.350;7.578;2022-12-05T00:07:43;99665.41;;;2.06;90.28
47883;BME280;37739;50.350;7.578;2022-12-05T00:10:11;99671.38;;;2.06;90.01
47883;BME280;37739;50.350;7.578;2022-12-05T00:12:36;99672.13;;;2.05;90.35
47883;BME280;37739;50.350;7.578;2022-12-05T00:15:02;99676.44;;;2.06;89.84
47883;BME280;37739;50.350;7.578;2022-12-05T00:17:27;99676.31;;;2.05;89.72
47883;BME280;37739;50.350;7.578;2022-12-05T00:19:53;99670.38;;;2.04;89.93
47883;BME280;37739;50.350;7.578;2022-12-05T00:22:20;99675.44;;;2.04;89.41
47883;BME280;37739;50.350;7.578;2022-12-05T00:24:48;99675.34;;;2.03;89.98
47883;BME280;37739;50.350;7.578;2022-12-05T00:27:16;99688.75;;;2.02;89.56
47883;BME280;37739;50.350;7.578;2022-12-05T00:29:43;99684.47;;;2.01;89.60
47883;BME280;37739;50.350;7.578;2022-12-05T00:32:09;99682.81;;;2.01;90.26
47883;BME280;37739;50.350;7.578;2022-12-05T00:34:34;99687.75;;;2.00;89.78
47883;BME280;37739;50.350;7.578;2022-12-05T00:36:59;99684.34;;;1.99;90.00
47883;BME280;37739;50.350;7.578;2022-12-05T00:39:25;99687.66;;;1.98;90.10
47883;BME280;37739;50.350;7.578;2022-12-05T00:41:52;99684.94;;;1.95;89.33
47883;BME280;37739;50.350;7.578;2022-12-05T00:44:17;99686.59;;;1.94;89.85
47883;BME280;37739;50.350;7.578;2022-12-05T00:46:45;99684.94;;;1.95;89.39
47883;BME280;37739;50.350;7.578;2022-12-05T00:49:10;99689.00;;;1.93;89.62
47883;BME280;37739;50.350;7.578;2022-12-05T00:51:40;99683.16;;;1.94;90.32
47883;BME280;37739;50.350;7.578;2022-12-05T00:54:09;99690.75;;;1.94;89.70
47883;BME280;37739;50.350;7.578;2022-12-05T00:56:35;99684.81;;;1.93;90.32
47883;BME280;37739;50.350;7.578;2022-12-05T00:59:03;99694.06;;;1.93;89.98
47883;BME280;37739;50.350;7.578;2022-12-05T01:01:39;99689.66;;;1.90;89.64
47883;BME280;37739;50.350;7.578;2022-12-05T01:04:25;99700.56;;;1.89;89.91
47883;BME280;37739;50.350;7.578;2022-12-05T01:06:54;99700.66;;;1.91;89.42
47883;BME280;37739;50.350;7.578;2022-12-05T01:09:23;99706.47;;;1.90;89.37
47883;BME280;37739;50.350;7.578;2022-12-05T01:11:50;99701.53;;;1.91;89.58
47883;BME280;37739;50.350;7.578;2022-12-05T01:14:20;99704.81;;;1.90;89.91
47883;BME280;37739;50.350;7.578;2022-12-05T01:16:48;99703.19;;;1.91;90.08
47883;BME280;37739;50.350;7.578;2022-12-05T01:19:21;99708.91;;;1.88;89.79
47883;BME280;37739;50.350;7.578;2022-12-05T01:21:46;99713.22;;;1.89;89.70
47883;BME280;37739;50.350;7.578;2022-12-05T01:24:17;99706.75;;;1.81;90.00
47883;BME280;37739;50.350;7.578;2022-12-05T01:26:44;99709.72;;;1.75;89.59
47883;BME280;37739;50.350;7.578;2022-12-05T01:29:11;99705.41;;;1.74;90.21
47883;BME280;37739;50.350;7.578;2022-12-05T01:31:37;99708.94;;;1.76;90.53
47883;BME280;37739;50.350;7.578;2022-12-05T01:34:05;99716.75;;;1.80;90.15
47883;BME280;37739;50.350;7.578;2022-12-05T01:36:31;99711.47;;;1.76;89.96
47883;BME280;37739;50.350;7.578;2022-12-05T01:38:59;99715.66;;;1.76;90.87
47883;BME280;37739;50.350;7.578;2022-12-05T01:41:27;99720.25;;;1.82;90.62
47883;BME280;37739;50.350;7.578;2022-12-05T01:46:33;99728.94;;;1.85;90.13
47883;BME280;37739;50.350;7.578;2022-12-05T01:51:29;99734.00;;;1.85;89.90
47883;BME280;37739;50.350;7.578;2022-12-05T01:53:54;99728.03;;;1.85;89.78
47883;BME280;37739;50.350;7.578;2022-12-05T01:56:20;99732.34;;;1.86;89.79
47883;BME280;37739;50.350;7.578;2022-12-05T01:58:50;99731.47;;;1.85;89.82
47883;BME280;37739;50.350;7.578;2022-12-05T02:01:17;99725.00;;;1.89;89.72
47883;BME280;37739;50.350;7.578;2022-12-05T02:03:44;99737.72;;;1.90;89.38
47883;BME280;37739;50.350;7.578;2022-12-05T02:06:11;99728.94;;;1.85;89.63
47883;BME280;37739;50.350;7.578;2022-12-05T02:08:37;99723.34;;;1.77;90.44
47883;BME280;37739;50.350;7.578;2022-12-05T02:11:05;99729.06;;;1.75;90.80
47883;BME280;37739;50.350;7.578;2022-12-05T02:13:42;99727.84;;;1.82;91.12
47883;BME280;37739;50.350;7.578;2022-12-05T02:16:25;99731.59;;;1.87;90.63
47883;BME280;37739;50.350;7.578;2022-12-05T02:19:37;99733.22;;;1.86;90.39
47883;BME280;37739;50.350;7.578;2022-12-05T02:24:32;99731.13;;;1.81;89.67
47883;BME280;37739;50.350;7.578;2022-12-05T02:30:04;99727.50;;;1.77;90.41
47883;BME280;37739;50.350;7.578;2022-12-05T02:38:26;99727.50;;;1.77;90.54
47883;BME280;37739;50.350;7.578;2022-12-05T02:41:15;99726.75;;;1.78;89.96
47883;BME280;37739;50.350;7.578;2022-12-05T02:44:05;99725.75;;;1.76;90.46
47883;BME280;37739;50.350;7.578;2022-12-05T02:46:38;99721.56;;;1.76;90.42
47883;BME280;37739;50.350;7.578;2022-12-05T02:49:12;99727.50;;;1.77;89.93
47883;BME280;37739;50.350;7.578;2022-12-05T02:51:50;99726.00;;;1.79;89.98
47883;BME280;37739;50.350;7.578;2022-12-05T02:54:25;99723.34;;;1.77;90.61
47883;BME280;37739;50.350;7.578;2022-12-05T02:56:55;99720.81;;;1.77;90.04
47883;BME280;37739;50.350;7.578;2022-12-05T02:59:26;99719.03;;;1.76;89.78
47883;BME280;37739;50.350;7.578;2022-12-05T03:01:51;99723.13;;;1.74;90.05
47883;BME280;37739;50.350;7.578;2022-12-05T03:04:20;99724.97;;;1.77;90.56
47883;BME280;37739;50.350;7.578;2022-12-05T03:06:57;99721.56;;;1.76;89.99
47883;BME280;37739;50.350;7.578;2022-12-05T03:12:01;99720.25;;;1.82;90.33
47883;BME280;37739;50.350;7.578;2022-12-05T03:14:33;99727.06;;;1.83;89.93
47883;BME280;37739;50.350;7.578;2022-12-05T03:17:03;99727.16;;;1.84;89.98
47883;BME280;37739;50.350;7.578;2022-12-05T03:19:43;99719.38;;;1.81;89.72
47883;BME280;37739;50.350;7.578;2022-12-05T03:22:20;99725.31;;;1.82;90.25
47883;BME280;37739;50.350;7.578;2022-12-05T03:24:51;99727.16;;;1.84;90.68
47883;BME280;37739;50.350;7.578;2022-12-05T03:27:32;99725.50;;;1.85;90.18
47883;BME280;37739;50.350;7.578;2022-12-05T03:30:07;99725.50;;;1.85;89.61
47883;BME280;37739;50.350;7.578;2022-12-05T03:35:29;99735.00;;;1.87;89.95
47883;BME280;37739;50.350;7.578;2022-12-05T03:38:12;99732.34;;;1.86;89.74
47883;BME280;37739;50.350;7.578;2022-12-05T03:40:46;99734.66;;;1.83;89.39
47883;BME280;37739;50.350;7.578;2022-12-05T03:46:39;99736.97;;;1.80;90.00
47883;BME280;37739;50.350;7.578;2022-12-05T03:49:14;99738.72;;;1.81;89.88
47883;BME280;37739;50.350;7.578;2022-12-05T03:51:54;99736.19;;;1.81;89.94
47883;BME280;37739;50.350;7.578;2022-12-05T03:54:24;99742.16;;;1.81;90.07
47883;BME280;37739;50.350;7.578;2022-12-05T03:57:28;99744.69;;;1.81;89.78
47883;BME280;37739;50.350;7.578;2022-12-05T04:00:08;99754.88;;;1.83;89.77
47883;BME280;37739;50.350;7.578;2022-12-05T04:02:47;99744.75;;;1.83;89.71
47883;BME280;37739;50.350;7.578;2022-12-05T04:05:23;99753.16;;;1.82;89.85
47883;BME280;37739;50.350;7.578;2022-12-05T04:07:58;99760.94;;;1.85;89.91
47883;BME280;37739;50.350;7.578;2022-12-05T04:10:30;99750.94;;;1.86;90.61
47883;BME280;37739;50.350;7.578;2022-12-05T04:12:59;99748.50;;;1.88;89.76
47883;BME280;37739;50.350;7.578;2022-12-05T04:15:47;99758.41;;;1.85;89.57
47883;BME280;37739;50.350;7.578;2022-12-05T04:18:33;99754.44;;;1.88;90.10
47883;BME280;37739;50.350;7.578;2022-12-05T04:21:04;99750.16;;;1.87;90.04
47883;BME280;37739;50.350;7.578;2022-12-05T04:23:48;99748.41;;;1.86;90.19
47883;BME280;37739;50.350;7.578;2022-12-05T04:26:35;99759.63;;;1.78;89.91
47883;BME280;37739;50.350;7.578;2022-12-05T04:29:23;99754.47;;;1.76;90.31
47883;BME280;37739;50.350;7.578;2022-12-05T04:31:54;99758.09;;;1.80;90.89
47883;BME280;37739;50.350;7.578;2022-12-05T04:34:23;99758.97;;;1.81;90.72
47883;BME280;37739;50.350;7.578;2022-12-05T04:36:55;99757.22;;;1.80;90.32
47883;BME280;37739;50.350;7.578;2022-12-05T04:41:59;99759.31;;;1.73;90.53
47883;BME280;37739;50.350;7.578;2022-12-05T04:44:31;99767.66;;;1.72;90.93
47883;BME280;37739;50.350;7.578;2022-12-05T04:47:01;99762.72;;;1.74;91.19
47883;BME280;37739;50.350;7.578;2022-12-05T04:49:30;99767.09;;;1.76;91.22
47883;BME280;37739;50.350;7.578;2022-12-05T04:52:02;99764.47;;;1.63;90.28
47883;BME280;37739;50.350;7.578;2022-12-05T04:54:54;99768.41;;;1.48;91.38
47883;BME280;37739;50.350;7.578;2022-12-05T04:57:25;99773.91;;;1.54;91.58
47883;BME280;37739;50.350;7.578;2022-12-05T04:59:54;99768.66;;;1.51;91.76
47883;BME280;37739;50.350;7.578;2022-12-05T05:03:03;99780.75;;;1.43;92.70
47883;BME280;37739;50.350;7.578;2022-12-05T05:05:32;99787.78;;;1.59;91.92
47883;BME280;37739;50.350;7.578;2022-12-05T05:08:01;99785.91;;;1.68;91.87
47883;BME280;37739;50.350;7.578;2022-12-05T05:10:41;99792.19;;;1.73;91.18
47883;BME280;37739;50.350;7.578;2022-12-05T05:13:09;99794.81;;;1.75;90.68
47883;BME280;37739;50.350;7.578;2022-12-05T05:15:37;99792.41;;;1.76;90.90
47883;BME280;37739;50.350;7.578;2022-12-05T05:18:02;99795.03;;;1.78;90.72
47883;BME280;37739;50.350;7.578;2022-12-05T05:20:27;99792.50;;;1.78;90.32
47883;BME280;37739;50.350;7.578;2022-12-05T05:22:54;99795.03;;;1.78;90.48
47883;BME280;37739;50.350;7.578;2022-12-05T05:25:21;99804.41;;;1.79;90.34
47883;BME280;37739;50.350;7.578;2022-12-05T05:27:48;99797.69;;;1.80;90.10
47883;BME280;37739;50.350;7.578;2022-12-05T05:30:14;99803.50;;;1.79;89.63
47883;BME280;37739;50.350;7.578;2022-12-05T05:32:39;99796.69;;;1.77;90.74
47883;BME280;37739;50.350;7.578;2022-12-05T05:35:08;99803.50;;;1.79;90.34
47883;BME280;37739;50.350;7.578;2022-12-05T05:37:35;99806.25;;;1.82;90.59
47883;BME280;37739;50.350;7.578;2022-12-05T05:40:03;99801.97;;;1.81;90.52
47883;BME280;37739;50.350;7.578;2022-12-05T05:42:30;99806.25;;;1.82;90.58
47883;BME280;37739;50.350;7.578;2022-12-05T05:44:56;99807.94;;;1.81;90.46
47883;BME280;37739;50.350;7.578;2022-12-05T05:47:21;99809.66;;;1.82;90.65
47883;BME280;37739;50.350;7.578;2022-12-05T05:49:46;99814.72;;;1.82;90.88
47883;BME280;37739;50.350;7.578;2022-12-05T05:52:13;99813.06;;;1.83;90.41
47883;BME280;37739;50.350;7.578;2022-12-05T05:54:39;99817.50;;;1.85;89.88
47883;BME280;37739;50.350;7.578;2022-12-05T05:57:05;99818.13;;;1.83;89.99
47883;BME280;37739;50.350;7.578;2022-12-05T05:59:30;99819.03;;;1.83;90.59
47883;BME280;37739;50.350;7.578;2022-12-05T06:01:58;99822.44;;;1.84;90.40
47883;BME280;37739;50.350;7.578;2022-12-05T06:04:23;99823.41;;;1.86;90.08
47883;BME280;37739;50.350;7.578;2022-12-05T06:06:48;99821.66;;;1.85;90.40
47883;BME280;37739;50.350;7.578;2022-12-05T06:09:14;99823.97;;;1.82;90.64
47883;BME280;37739;50.350;7.578;2022-12-05T06:11:39;99829.16;;;1.83;90.40
47883;BME280;37739;50.350;7.578;2022-12-05T06:14:04;99825.72;;;1.83;91.05
47883;BME280;37739;50.350;7.578;2022-12-05T06:16:30;99835.75;;;1.81;90.01
47883;BME280;37739;50.350;7.578;2022-12-05T06:18:57;99823.84;;;1.80;90.88
47883;BME280;37739;50.350;7.578;2022-12-05T06:21:23;99825.06;;;1.73;90.41
47883;BME280;37739;50.350;7.578;2022-12-05T06:23:49;99829.03;;;1.58;91.14
47883;BME280;37739;50.350;7.578;2022-12-05T06:26:17;99826.59;;;1.60;92.29
47883;BME280;37739;50.350;7.578;2022-12-05T06:28:45;99821.09;;;1.65;91.74
47883;BME280;37739;50.350;7.578;2022-12-05T06:31:15;99830.13;;;1.73;91.75
47883;BME280;37739;50.350;7.578;2022-12-05T06:33:40;99835.50;;;1.78;90.98
47883;BME280;37739;50.350;7.578;2022-12-05T06:36:08;99835.50;;;1.78;91.19
47883;BME280;37739;50.350;7.578;2022-12-05T06:38:36;99837.38;;;1.81;91.00
47883;BME280;37739;50.350;7.578;2022-12-05T06:41:07;99850.94;;;1.81;91.11
47883;BME280;37739;50.350;7.578;2022-12-05T06:43:37;99844.31;;;1.83;90.69
47883;BME280;37739;50.350;7.578;2022-12-05T06:46:10;99845.88;;;1.81;90.09
47883;BME280;37739;50.350;7.578;2022-12-05T06:48:37;99844.22;;;1.82;90.80
47883;BME280;37739;50.350;7.578;2022-12-05T06:51:03;99846.75;;;1.82;90.90
47883;BME280;37739;50.350;7.578;2022-12-05T06:53:31;99843.41;;;1.83;90.93
47883;BME280;37739;50.350;7.578;2022-12-05T06:56:01;99845.94;;;1.83;90.90
47883;BME280;37739;50.350;7.578;2022-12-05T06:58:27;99844.97;;;1.81;91.15
47883;BME280;37739;50.350;7.578;2022-12-05T07:00:55;99846.72;;;1.70;91.55
47883;BME280;37739;50.350;7.578;2022-12-05T07:03:42;99840.88;;;1.59;91.48
47883;BME280;37739;50.350;7.578;2022-12-05T07:06:08;99844.06;;;1.56;91.64
47883;BME280;37739;50.350;7.578;2022-12-05T07:08:36;99852.66;;;1.59;92.48
47883;BME280;37739;50.350;7.578;2022-12-05T07:11:05;99854.41;;;1.60;92.83
47883;BME280;37739;50.350;7.578;2022-12-05T07:13:33;99859.59;;;1.73;92.35
47883;BME280;37739;50.350;7.578;2022-12-05T07:15:59;99866.63;;;1.77;90.99
47883;BME280;37739;50.350;7.578;2022-12-05T07:18:25;99870.25;;;1.81;92.07
47883;BME280;37739;50.350;7.578;2022-12-05T07:21:01;99866.97;;;1.82;90.79
47883;BME280;37739;50.350;7.578;2022-12-05T07:23:29;99872.03;;;1.82;91.64
47883;BME280;37739;50.350;7.578;2022-12-05T07:25:57;99867.72;;;1.81;90.78
47883;BME280;37739;50.350;7.578;2022-12-05T07:28:23;99868.84;;;1.84;91.25
47883;BME280;37739;50.350;7.578;2022-12-05T07:31:10;99874.69;;;1.83;90.40
47883;BME280;37739;50.350;7.578;2022-12-05T07:33:36;99870.50;;;1.84;90.37
47883;BME280;37739;50.350;7.578;2022-12-05T07:36:07;99874.25;;;1.89;91.06
47883;BME280;37739;50.350;7.578;2022-12-05T07:38:36;99882.81;;;1.91;91.05
47883;BME280;37739;50.350;7.578;2022-12-05T07:41:36;99883.59;;;1.90;90.71
47883;BME280;37739;50.350;7.578;2022-12-05T07:44:08;99870.81;;;1.88;90.46
47883;BME280;37739;50.350;7.578;2022-12-05T07:46:36;99866.31;;;1.84;90.80
47883;BME280;37739;50.350;7.578;2022-12-05T07:49:04;99870.94;;;1.78;90.83
47883;BME280;37739;50.350;7.578;2022-12-05T07:51:31;99875.53;;;1.72;91.79
47883;BME280;37739;50.350;7.578;2022-12-05T07:53:57;99884.88;;;1.85;91.47
47883;BME280;37739;50.350;7.578;2022-12-05T07:56:25;99883.69;;;1.91;91.58
47883;BME280;37739;50.350;7.578;2022-12-05T07:58:52;99872.22;;;1.85;90.87
47883;BME280;37739;50.350;7.578;2022-12-05T08:01:23;99878.63;;;1.80;91.38
47883;BME280;37739;50.350;7.578;2022-12-05T08:03:50;99877.09;;;1.82;91.67
47883;BME280;37739;50.350;7.578;2022-12-05T08:06:23;99882.34;;;1.85;91.15
47883;BME280;37739;50.350;7.578;2022-12-05T08:08:50;99883.81;;;1.93;91.41
47883;BME280;37739;50.350;7.578;2022-12-05T08:11:23;99884.38;;;2.01;91.18
47883;BME280;37739;50.350;7.578;2022-12-05T08:13:52;99877.75;;;2.03;90.66
47883;BME280;37739;50.350;7.578;2022-12-05T08:16:24;99885.69;;;2.07;90.97
47883;BME280;37739;50.350;7.578;2022-12-05T08:18:58;99891.72;;;2.09;89.91
47883;BME280;37739;50.350;7.578;2022-12-05T08:21:23;99881.94;;;2.14;90.90
47883;BME280;37739;50.350;7.578;2022-12-05T08:23:50;99896.34;;;2.15;89.85
47883;BME280;37739;50.350;7.578;2022-12-05T08:26:23;99903.06;;;2.14;89.83
47883;BME280;37739;50.350;7.578;2022-12-05T08:29:15;99900.53;;;2.14;89.99
47883;BME280;37739;50.350;7.578;2022-12-05T08:31:42;99901.41;;;2.15;90.02
47883;BME280;37739;50.350;7.578;2022-12-05T08:34:10;99909.34;;;2.20;90.03
47883;BME280;37739;50.350;7.578;2022-12-05T08:36:39;99919.34;;;2.18;89.67
47883;BME280;37739;50.350;7.578;2022-12-05T08:39:09;99930.47;;;2.20;89.77
47883;BME280;37739;50.350;7.578;2022-12-05T08:41:36;99931.56;;;2.24;89.65
47883;BME280;37739;50.350;7.578;2022-12-05T08:44:04;99930.91;;;2.26;90.38
47883;BME280;37739;50.350;7.578;2022-12-05T08:46:37;99936.84;;;2.27;89.98
47883;BME280;37739;50.350;7.578;2022-12-05T08:49:04;99933.75;;;2.31;89.54
47883;BME280;37739;50.350;7.578;2022-12-05T08:51:32;99938.19;;;2.33;89.15
47883;BME280;37739;50.350;7.578;2022-12-05T08:54:03;99944.13;;;2.34;89.16
47883;BME280;37739;50.350;7.578;2022-12-05T08:56:29;99952.50;;;2.33;89.47
47883;BME280;37739;50.350;7.578;2022-12-05T08:58:55;99956.91;;;2.35;89.59
47883;BME280;37739;50.350;7.578;2022-12-05T09:01:23;99959.44;;;2.35;89.43
47883;BME280;37739;50.350;7.578;2022-12-05T09:03:57;99965.91;;;2.32;90.03
47883;BME280;37739;50.350;7.578;2022-12-05T09:06:27;99968.44;;;2.32;90.02
47883;BME280;37739;50.350;7.578;2022-12-05T09:08:57;99967.69;;;2.33;89.73
47883;BME280;37739;50.350;7.578;2022-12-05T09:11:28;99969.44;;;2.34;89.76
47883;BME280;37739;50.350;7.578;2022-12-05T09:13:59;99969.31;;;2.32;89.87
47883;BME280;37739;50.350;7.578;2022-12-05T09:16:28;99972.84;;;2.34;90.24
47883;BME280;37739;50.350;7.578;2022-12-05T09:18:57;99966.91;;;2.34;89.35
47883;BME280;37739;50.350;7.578;2022-12-05T09:21:30;99972.84;;;2.34;89.17
47883;BME280;37739;50.350;7.578;2022-12-05T09:23:59;99973.06;;;2.38;89.67
47883;BME280;37739;50.350;7.578;2022-12-05T09:26:26;99968.13;;;2.39;89.45
47883;BME280;37739;50.350;7.578;2022-12-05T09:28:54;99970.00;;;2.42;89.53
47883;BME280;37739;50.350;7.578;2022-12-05T09:31:22;99970.84;;;2.42;89.34
47883;BME280;37739;50.350;7.578;2022-12-05T09:33:51;99974.38;;;2.44;89.25
47883;BME280;37739;50.350;7.578;2022-12-05T09:36:23;99975.47;;;2.48;89.82
47883;BME280;37739;50.350;7.578;2022-12-05T09:38:49;99973.06;;;2.49;89.83
47883;BME280;37739;50.350;7.578;2022-12-05T09:44:48;99976.03;;;2.55;89.11
47883;BME280;37739;50.350;7.578;2022-12-05T09:47:34;99977.03;;;2.58;88.70
47883;BME280;37739;50.350;7.578;2022-12-05T09:50:15;99982.88;;;2.57;88.90
47883;BME280;37739;50.350;7.578;2022-12-05T09:52:58;99987.16;;;2.58;89.03
47883;BME280;37739;50.350;7.578;2022-12-05T09:55:28;99979.78;;;2.61;89.50
47883;BME280;37739;50.350;7.578;2022-12-05T09:57:59;99970.88;;;2.66;88.96
47883;BME280;37739;50.350;7.578;2022-12-05T10:00:28;99970.44;;;2.71;88.86
47883;BME280;37739;50.350;7.578;2022-12-05T10:03:03;99969.41;;;2.81;89.22
47883;BME280;37739;50.350;7.578;2022-12-05T10:08:30;99959.44;;;2.96;88.68
47883;BME280;37739;50.350;7.578;2022-12-05T10:11:03;99951.50;;;3.03;88.27
47883;BME280;37739;50.350;7.578;2022-12-05T10:16:17;99954.56;;;3.11;88.18
47883;BME280;37739;50.350;7.578;2022-12-05T10:18:57;99957.91;;;3.10;88.51
47883;BME280;37739;50.350;7.578;2022-12-05T10:21:36;99957.91;;;3.10;88.73
47883;BME280;37739;50.350;7.578;2022-12-05T10:24:11;99954.47;;;3.09;88.53
47883;BME280;37739;50.350;7.578;2022-12-05T10:26:52;99967.69;;;3.05;88.07
47883;BME280;37739;50.350;7.578;2022-12-05T10:29:49;99965.97;;;3.04;88.94
47883;BME280;37739;50.350;7.578;2022-12-05T10:32:21;99961.75;;;3.05;88.75
47883;BME280;37739;50.350;7.578;2022-12-05T10:34:49;99963.19;;;3.01;88.68
47883;BME280;37739;50.350;7.578;2022-12-05T10:37:21;99963.75;;;2.97;88.73
47883;BME280;37739;50.350;7.578;2022-12-05T10:39:48;99962.22;;;2.99;88.78
47883;BME280;37739;50.350;7.578;2022-12-05T10:42:18;99969.03;;;3.00;88.47
47883;BME280;37739;50.350;7.578;2022-12-05T10:44:46;99967.50;;;3.02;89.05
47883;BME280;37739;50.350;7.578;2022-12-05T10:47:14;99973.22;;;3.00;88.60
47883;BME280;37739;50.350;7.578;2022-12-05T10:49:40;99966.19;;;2.95;89.21
47883;BME280;37739;50.350;7.578;2022-12-05T10:52:09;99961.97;;;2.96;88.81
47883;BME280;37739;50.350;7.578;2022-12-05T10:54:43;99962.22;;;2.99;88.38
47883;BME280;37739;50.350;7.578;2022-12-05T10:57:24;99954.34;;;3.08;88.28
47883;BME280;37739;50.350;7.578;2022-12-05T10:59:50;99955.38;;;3.10;87.68
47883;BME280;37739;50.350;7.578;2022-12-05T11:02:21;99953.44;;;3.19;88.55
47883;BME280;37739;50.350;7.578;2022-12-05T11:04:49;99961.69;;;3.28;87.91
47883;BME280;37739;50.350;7.578;2022-12-05T11:09:53;99957.13;;;3.36;88.11
47883;BME280;37739;50.350;7.578;2022-12-05T11:12:27;99953.91;;;3.39;88.34
47883;BME280;37739;50.350;7.578;2022-12-05T11:14:54;99959.19;;;3.42;88.33
47883;BME280;37739;50.350;7.578;2022-12-05T11:17:31;99956.09;;;3.46;88.00
47883;BME280;37739;50.350;7.578;2022-12-05T11:19:57;99946.94;;;3.48;88.01
47883;BME280;37739;50.350;7.578;2022-12-05T11:22:32;99960.06;;;3.42;88.34
47883;BME280;37739;50.350;7.578;2022-12-05T11:25:23;99955.69;;;3.40;88.18
47883;BME280;37739;50.350;7.578;2022-12-05T11:27:49;99946.16;;;3.49;88.86
47883;BME280;37739;50.350;7.578;2022-12-05T11:30:20;99956.97;;;3.46;88.01
47883;BME280;37739;50.350;7.578;2022-12-05T11:32:46;99949.94;;;3.42;88.89
47883;BME280;37739;50.350;7.578;2022-12-05T11:37:47;99959.16;;;3.53;88.32
47883;BME280;37739;50.350;7.578;2022-12-05T11:40:16;99952.97;;;3.50;88.82
47883;BME280;37739;50.350;7.578;2022-12-05T11:56:35;99942.25;;;3.29;89.59
47883;BME280;37739;50.350;7.578;2022-12-05T11:59:42;99934.88;;;3.32;90.45
47883;BME280;37739;50.350;7.578;2022-12-05T12:05:17;99938.03;;;3.41;89.18
47883;BME280;37739;50.350;7.578;2022-12-05T12:13:33;99948.94;;;3.40;89.08
47883;BME280;37739;50.350;7.578;2022-12-05T12:24:26;99946.69;;;3.31;89.61
47883;BME280;37739;50.350;7.578;2022-12-05T12:27:12;99952.41;;;3.29;89.42
47883;BME280;37739;50.350;7.578;2022-12-05T12:29:51;99941.28;;;3.27;89.92
47883;BME280;37739;50.350;7.578;2022-12-05T12:32:52;99949.69;;;3.26;89.91
47883;BME280;37739;50.350;7.578;2022-12-05T12:38:04;99953.78;;;3.24;90.35
47883;BME280;37739;50.350;7.578;2022-12-05T12:40:42;99954.53;;;3.23;90.50
47883;BME280;37739;50.350;7.578;2022-12-05T12:51:32;99949.56;;;3.24;91.04
47883;BME280;37739;50.350;7.578;2022-12-05T12:55:05;99950.34;;;3.23;90.42
47883;BME280;37739;50.350;7.578;2022-12-05T12:57:17;99955.41;;;3.23;90.80
47883;BME280;37739;50.350;7.578;2022-12-05T13:03:29;99952.22;;;3.26;90.69
47883;BME280;37739;50.350;7.578;2022-12-05T13:06:03;99944.59;;;3.26;91.21
47883;BME280;37739;50.350;7.578;2022-12-05T13:08:39;99950.78;;;3.29;90.76
47883;BME280;37739;50.350;7.578;2022-12-05T13:11:10;99944.25;;;3.33;90.71
47883;BME280;37739;50.350;7.578;2022-12-05T13:13:45;99944.44;;;3.36;90.71
47883;BME280;37739;50.350;7.578;2022-12-05T13:16:25;99946.97;;;3.36;90.31
47883;BME280;37739;50.350;7.578;2022-12-05T13:18:53;99939.38;;;3.36;90.60
47883;BME280;37739;50.350;7.578;2022-12-05T13:21:22;99941.16;;;3.37;90.51
47883;BME280;37739;50.350;7.578;2022-12-05T13:23:50;99942.72;;;3.35;90.11
47883;BME280;37739;50.350;7.578;2022-12-05T13:26:18;99942.59;;;3.33;90.71
47883;BME280;37739;50.350;7.578;2022-12-05T13:28:55;99943.25;;;3.31;90.65
47883;BME280;37739;50.350;7.578;2022-12-05T13:31:38;99939.19;;;3.33;90.48
47883;BME280;37739;50.350;7.578;2022-12-05T13:34:04;99948.31;;;3.31;90.90
47883;BME280;37739;50.350;7.578;2022-12-05T13:36:39;99951.75;;;3.31;90.91
47883;BME280;37739;50.350;7.578;2022-12-05T13:39:23;99957.81;;;3.33;91.29
47883;BME280;37739;50.350;7.578;2022-12-05T13:42:28;99956.03;;;3.32;90.71
47883;BME280;37739;50.350;7.578;2022-12-05T13:45:16;99954.28;;;3.31;91.19
47883;BME280;37739;50.350;7.578;2022-12-05T13:56:06;99961.09;;;3.32;91.67
47883;BME280;37739;50.350;7.578;2022-12-05T14:09:02;99964.78;;;3.24;92.26
47883;BME280;37739;50.350;7.578;2022-12-05T14:11:31;99965.47;;;3.22;91.67
47883;BME280;37739;50.350;7.578;2022-12-05T14:14:01;99963.81;;;3.22;92.41
47883;BME280;37739;50.350;7.578;2022-12-05T14:19:06;99965.47;;;3.22;91.91
47883;BME280;37739;50.350;7.578;2022-12-05T14:27:06;99961.25;;;3.22;92.52
47883;BME280;37739;50.350;7.578;2022-12-05T14:32:37;99966.56;;;3.25;91.99
47883;BME280;37739;50.350;7.578;2022-12-05T14:38:27;99964.78;;;3.24;91.86
47883;BME280;37739;50.350;7.578;2022-12-05T14:40:54;99968.19;;;3.25;91.82
47883;BME280;37739;50.350;7.578;2022-12-05T14:43:29;99969.84;;;3.24;91.92
47883;BME280;37739;50.350;7.578;2022-12-05T14:48:35;99970.63;;;3.23;91.86
47883;BME280;37739;50.350;7.578;2022-12-05T14:54:01;99966.34;;;3.22;92.26
47883;BME280;37739;50.350;7.578;2022-12-05T14:56:34;99963.81;;;3.22;92.50
47883;BME280;37739;50.350;7.578;2022-12-05T15:07:03;99965.34;;;3.20;92.80
47883;BME280;37739;50.350;7.578;2022-12-05T15:09:54;99966.22;;;3.21;93.20
47883;BME280;37739;50.350;7.578;2022-12-05T15:12:22;99972.09;;;3.20;92.92
47883;BME280;37739;50.350;7.578;2022-12-05T15:14:56;99971.09;;;3.18;92.75
47883;BME280;37739;50.350;7.578;2022-12-05T15:17:27;99967.78;;;3.19;92.93
47883;BME280;37739;50.350;7.578;2022-12-05T15:20:00;99964.25;;;3.17;92.88
47883;BME280;37739;50.350;7.578;2022-12-05T15:22:32;99966.69;;;3.15;92.88
47883;BME280;37739;50.350;7.578;2022-12-05T15:25:14;99971.00;;;3.16;93.04
47883;BME280;37739;50.350;7.578;2022-12-05T15:27:39;99972.72;;;3.17;93.55
47883;BME280;37739;50.350;7.578;2022-12-05T15:30:14;99975.38;;;3.19;92.81
47883;BME280;37739;50.350;7.578;2022-12-05T15:32:42;99972.84;;;3.19;92.90
47883;BME280;37739;50.350;7.578;2022-12-05T15:35:12;99983.00;;;3.19;93.08
47883;BME280;37739;50.350;7.578;2022-12-05T15:37:50;99978.72;;;3.18;92.87
47883;BME280;37739;50.350;7.578;2022-12-05T15:40:19;99982.88;;;3.17;93.11
47883;BME280;37739;50.350;7.578;2022-12-05T15:42:49;99986.97;;;3.15;93.77
47883;BME280;37739;50.350;7.578;2022-12-05T15:45:20;99978.72;;;3.18;93.28
47883;BME280;37739;50.350;7.578;2022-12-05T15:47:49;99986.84;;;3.13;93.66